MDT weather

Harrisburg International Airport
Harrisburg, Pennsylvania, United States

Public forecast

Using degrees Fahrenheit for public forecast. Weather courtesy of forecast.io.

METAR (pilot weather report)

Retrieved 2019/03/23 13:56 UTC (27 minutes ago):

KMDT 231356Z 31025G31KT 10SM CLR 04/M07 A3001 RMK AO2 PK WND 30031/1355 SLP164 T00391072

TAF (pilot weather forecast)

Retrieved 2019/03/23 12:36 UTC (2 hours ago):

TAF KMDT 231134Z 2312/2412 30019G29KT P6SM SKC FM232300 30010KT P6SM SKC